Time;durP1;ratioP1;P1;durP2;ratioP2;P2;SDS_P1;SDS_P2;PMS_P1;PMS_P2;Temp;Humidity;BMP_temperature;BMP_pressure;BME280_temperature;BME280_humidity;BME280_pressure;Samples;Min_cycle;Max_cycle;Signal;HPM_P1;HPM_P2
2023/09/02 00:02:19;;;;;;;;;6.00;5.25;;;;;23.09;52.46;101030.09;4959492;28;45403;-44
2023/09/02 00:04:45;;;;;;;;;9.00;7.75;;;;;23.09;52.94;101032.75;4959583;28;45303;-43
2023/09/02 00:07:11;;;;;;;;;8.25;6.25;;;;;23.10;52.52;101028.28;4959537;28;45370;-44
2023/09/02 00:09:36;;;;;;;;;9.00;6.50;;;;;23.10;52.87;101033.56;4959166;28;45366;-44
2023/09/02 00:12:01;;;;;;;;;12.00;6.75;;;;;23.09;52.69;101034.50;4959122;28;49481;-45
2023/09/02 00:14:26;;;;;;;;;6.50;6.00;;;;;23.10;52.50;101044.16;4958181;28;45490;-45
2023/09/02 00:16:52;;;;;;;;;7.25;7.00;;;;;23.10;52.51;101042.34;4958822;28;53289;-44
2023/09/02 00:19:17;;;;;;;;;9.75;7.25;;;;;23.10;53.24;101047.63;4958890;28;49270;-43
2023/09/02 00:21:42;;;;;;;;;5.25;5.25;;;;;23.10;53.06;101046.78;4959032;28;45821;-43
2023/09/02 00:24:08;;;;;;;;;7.00;7.00;;;;;23.09;52.46;101045.94;4959197;28;45716;-41
2023/09/02 00:26:34;;;;;;;;;8.00;7.00;;;;;23.10;52.72;101041.50;4941491;28;47191;-43
2023/09/02 00:29:00;;;;;;;;;7.50;6.50;;;;;23.11;52.45;101032.63;4958750;28;45429;-42
2023/09/02 00:31:26;;;;;;;;;8.75;7.00;;;;;23.10;53.02;101036.22;4959141;28;45334;-43
2023/09/02 00:33:52;;;;;;;;;6.50;6.00;;;;;23.10;52.40;101042.34;4959110;28;45485;-43
2023/09/02 00:36:17;;;;;;;;;8.25;5.75;;;;;23.10;52.79;101044.16;4958776;28;45375;-44
2023/09/02 00:38:43;;;;;;;;;6.00;6.00;;;;;23.11;52.51;101043.19;4958624;28;45263;-43
2023/09/02 00:41:13;;;;;;;;;5.75;5.00;;;;;23.10;53.02;101044.97;4959044;28;45325;-45
2023/09/02 00:43:39;;;;;;;;;7.50;6.25;;;;;23.10;52.92;101047.63;4959075;28;45390;-44
2023/09/02 00:46:05;;;;;;;;;9.00;7.00;;;;;23.12;52.48;101043.09;4958481;28;46389;-44
2023/09/02 00:48:31;;;;;;;;;6.25;6.25;;;;;23.11;52.58;101049.31;4958655;28;45858;-43
2023/09/02 00:50:56;;;;;;;;;9.00;6.00;;;;;23.11;52.54;101051.97;4958743;28;45379;-44
2023/09/02 00:53:24;;;;;;;;;6.50;5.00;;;;;23.10;52.81;101047.63;4958825;28;45614;-43
2023/09/02 00:55:50;;;;;;;;;5.25;5.00;;;;;23.10;52.78;101047.63;4958441;28;47055;-43
2023/09/02 00:58:16;;;;;;;;;3.00;3.00;;;;;23.11;52.93;101049.31;4958404;28;45830;-42
2023/09/02 01:00:42;;;;;;;;;8.00;5.25;;;;;23.10;52.93;101047.63;4958975;28;45246;-42
2023/09/02 01:03:08;;;;;;;;;6.00;6.00;;;;;23.11;52.60;101049.31;4958725;28;45660;-44
2023/09/02 01:05:34;;;;;;;;;8.00;5.00;;;;;23.12;52.42;101042.25;4940694;28;46262;-43
2023/09/02 01:07:59;;;;;;;;;5.50;5.50;;;;;23.11;53.00;101036.09;4958239;28;45557;-44
2023/09/02 01:10:25;;;;;;;;;8.00;5.00;;;;;23.12;53.06;101036.97;4941123;28;45385;-43
2023/09/02 01:12:51;;;;;;;;;5.25;5.25;;;;;23.11;52.62;101044.03;4958415;28;45477;-44
2023/09/02 01:15:16;;;;;;;;;7.25;6.00;;;;;23.12;52.63;101051.03;4958195;28;45331;-45
2023/09/02 01:17:42;;;;;;;;;7.50;6.00;;;;;23.11;52.66;101043.19;4958532;28;45374;-43
2023/09/02 01:20:11;;;;;;;;;6.00;6.00;;;;;23.11;53.19;101048.50;4958326;28;45421;-44
2023/09/02 01:23:09;;;;;;;;;5.00;5.00;;;;;23.10;53.19;101042.34;4958214;28;45581;-44
2023/09/02 01:25:56;;;;;;;;;7.25;6.00;;;;;23.09;52.78;101040.66;4957943;28;46727;-43
2023/09/02 01:28:28;;;;;;;;;6.25;5.25;;;;;23.10;52.83;101041.50;4957956;28;45769;-44
2023/09/02 01:30:55;;;;;;;;;7.00;7.00;;;;;23.10;52.88;101042.34;4940678;28;45418;-44
2023/09/02 01:33:25;;;;;;;;;5.75;4.75;;;;;23.10;53.28;101044.97;4958164;28;45572;-45
2023/09/02 01:35:57;;;;;;;;;7.75;6.00;;;;;23.09;53.23;101045.94;4957665;28;45415;-46
2023/09/02 01:38:26;;;;;;;;;7.75;5.25;;;;;23.09;52.94;101051.25;4957817;28;45381;-44
2023/09/02 01:40:54;;;;;;;;;5.50;4.00;;;;;23.10;53.34;101046.78;4958049;28;45346;-44
2023/09/02 01:43:23;;;;;;;;;4.00;4.00;;;;;23.11;52.73;101043.19;4958013;28;45441;-44
2023/09/02 01:45:51;;;;;;;;;6.50;5.25;;;;;23.10;53.42;101044.16;4957539;28;46454;-44
2023/09/02 01:48:18;;;;;;;;;8.50;4.75;;;;;23.09;53.08;101043.31;4957900;28;45905;-44
2023/09/02 01:50:44;;;;;;;;;5.50;5.00;;;;;23.10;52.97;101034.41;4957153;28;45314;-44
2023/09/02 01:53:09;;;;;;;;;5.00;5.00;;;;;23.09;53.64;101043.31;4957982;28;45614;-43
2023/09/02 01:55:35;;;;;;;;;4.50;4.50;;;;;23.09;52.94;101043.31;4957453;28;45331;-43
2023/09/02 01:58:00;;;;;;;;;5.25;4.75;;;;;23.08;53.50;101033.69;4957633;28;45463;-43
2023/09/02 02:00:26;;;;;;;;;5.50;5.00;;;;;23.08;52.94;101033.69;4957613;28;45394;-44
2023/09/02 02:02:55;;;;;;;;;6.00;5.25;;;;;23.09;53.43;101024.81;4957708;28;45605;-42
2023/09/02 02:05:27;;;;;;;;;4.50;4.50;;;;;23.09;53.13;101029.22;4957386;28;46146;-44
2023/09/02 02:07:58;;;;;;;;;5.00;4.75;;;;;23.08;53.08;101028.38;4957599;28;45638;-44
2023/09/02 02:10:27;;;;;;;;;7.25;4.25;;;;;23.08;52.89;101023.09;4957613;28;45426;-44
2023/09/02 02:12:53;;;;;;;;;6.25;6.00;;;;;23.08;53.30;101024.88;4957835;28;45244;-45
2023/09/02 02:15:18;;;;;;;;;5.00;5.00;;;;;23.09;52.93;101018.66;4957694;28;46255;-43
2023/09/02 02:17:44;;;;;;;;;5.00;5.00;;;;;23.08;53.22;101007.25;4957743;28;45267;-43
2023/09/02 02:20:10;;;;;;;;;4.50;4.50;;;;;23.08;53.53;101012.53;4957493;28;45318;-45
2023/09/02 02:22:35;;;;;;;;;5.75;5.75;;;;;23.07;54.03;101009.97;4957396;28;45539;-45
2023/09/02 02:25:01;;;;;;;;;5.00;5.00;;;;;23.04;53.52;101005.72;4957109;28;45256;-44
2023/09/02 02:27:27;;;;;;;;;7.50;6.00;;;;;23.03;53.66;101009.31;4957212;28;45865;-43
2023/09/02 02:29:52;;;;;;;;;5.00;4.75;;;;;23.03;53.80;101016.41;4957323;28;45209;-45
2023/09/02 02:32:17;;;;;;;;;6.50;4.25;;;;;23.03;53.40;101019.88;4957382;28;49374;-46
2023/09/02 02:34:42;;;;;;;;;6.75;5.00;;;;;23.03;53.44;101019.88;4957227;28;45598;-45
2023/09/02 02:37:08;;;;;;;;;6.00;5.00;;;;;23.02;53.40;101026.13;4956517;28;60973;-45
2023/09/02 02:39:33;;;;;;;;;7.50;4.50;;;;;23.01;53.47;101022.63;4957131;28;45323;-46
2023/09/02 02:41:59;;;;;;;;;4.00;4.00;;;;;23.00;53.88;101031.50;4957352;28;45589;-42
2023/09/02 02:44:24;;;;;;;;;4.50;4.50;;;;;23.00;53.73;101020.06;4956823;28;47901;-44
2023/09/02 02:46:50;;;;;;;;;4.25;3.50;;;;;22.99;53.75;101013.94;4957172;28;45328;-45
2023/09/02 02:49:15;;;;;;;;;6.50;5.00;;;;;22.99;54.08;101021.88;4957147;28;45465;-45
2023/09/02 02:51:40;;;;;;;;;5.25;3.25;;;;;22.99;54.13;101021.88;4956867;28;46291;-43
2023/09/02 02:54:06;;;;;;;;;4.25;4.25;;;;;22.99;54.17;101027.16;4956819;28;45373;-45
2023/09/02 02:56:31;;;;;;;;;8.50;5.00;;;;;22.99;54.13;101035.09;4956860;28;45529;-44
2023/09/02 02:58:56;;;;;;;;;4.75;4.00;;;;;22.99;53.86;101023.66;4956939;28;45266;-44
2023/09/02 03:01:21;;;;;;;;;4.00;4.00;;;;;22.97;53.72;101018.47;4956496;28;54709;-44
2023/09/02 03:03:47;;;;;;;;;4.25;4.25;;;;;22.98;54.00;101016.69;4959811;28;53993;-45
2023/09/02 03:06:18;;;;;;;;;6.00;4.25;;;;;22.97;54.02;101015.84;4960198;28;45378;-46
2023/09/02 03:08:43;;;;;;;;;5.00;4.00;;;;;22.98;53.79;101029.91;4960508;28;45505;-45
2023/09/02 03:11:08;;;;;;;;;4.00;4.00;;;;;22.98;53.70;101035.22;4960268;28;45528;-46
2023/09/02 03:13:33;;;;;;;;;4.50;4.00;;;;;22.98;54.21;101037.84;4942125;28;62950;-44
2023/09/02 03:16:01;;;;;;;;;4.50;4.50;;;;;22.98;54.31;101036.03;4959687;28;54776;-45
2023/09/02 03:18:26;;;;;;;;;4.00;4.00;;;;;22.97;54.19;101034.34;4960035;28;45327;-44
2023/09/02 03:20:52;;;;;;;;;4.00;3.25;;;;;22.99;53.46;101036.88;4960545;28;45457;-43
2023/09/02 03:23:18;;;;;;;;;4.00;4.00;;;;;22.97;53.81;101042.28;4960216;28;45377;-44
2023/09/02 03:25:43;;;;;;;;;4.75;4.75;;;;;22.99;53.95;101044.81;4959894;28;45247;-43
2023/09/02 03:28:08;;;;;;;;;5.00;3.75;;;;;22.99;53.58;101044.81;4959814;28;45528;-43
2023/09/02 03:30:33;;;;;;;;;6.00;3.00;;;;;23.00;53.50;101043.88;4960008;28;45387;-43
2023/09/02 03:32:59;;;;;;;;;3.75;3.75;;;;;23.00;53.67;101044.72;4959859;28;45237;-43
2023/09/02 03:35:25;;;;;;;;;3.50;3.50;;;;;23.00;54.25;101057.09;4959808;28;45307;-45
2023/09/02 03:37:51;;;;;;;;;3.25;2.25;;;;;22.99;53.65;101063.31;4960216;28;45447;-45
2023/09/02 03:40:16;;;;;;;;;3.75;3.00;;;;;23.01;53.41;101058.78;4960089;28;45572;-44
2023/09/02 03:42:42;;;;;;;;;5.00;4.00;;;;;23.00;53.46;101065.88;4959495;28;46033;-44
2023/09/02 03:45:09;;;;;;;;;5.00;4.00;;;;;23.01;53.62;101070.22;4959570;28;45256;-44
2023/09/02 03:47:35;;;;;;;;;3.25;3.25;;;;;23.03;53.96;101067.47;4959725;28;45406;-44
2023/09/02 03:50:03;;;;;;;;;3.50;2.25;;;;;23.04;53.42;101078.91;4959763;28;45520;-45
2023/09/02 03:52:29;;;;;;;;;2.75;2.75;;;;;23.03;53.71;101078.03;4959366;28;46974;-44
2023/09/02 03:54:55;;;;;;;;;3.00;3.00;;;;;23.04;53.71;101073.63;4959639;28;45441;-43
2023/09/02 03:57:21;;;;;;;;;4.00;4.00;;;;;23.03;53.46;101072.75;4959831;28;45347;-46
2023/09/02 03:59:46;;;;;;;;;5.50;3.00;;;;;23.04;53.37;101066.53;4959726;28;45473;-44
2023/09/02 04:02:11;;;;;;;;;4.75;4.00;;;;;23.04;53.28;101055.97;4959031;28;56188;-45
2023/09/02 04:04:37;;;;;;;;;3.25;3.00;;;;;23.05;53.77;101051.50;4959260;28;45315;-43
2023/09/02 04:07:02;;;;;;;;;4.25;4.00;;;;;23.04;53.86;101039.25;4959272;28;45366;-44
2023/09/02 04:09:28;;;;;;;;;2.25;2.25;;;;;23.04;53.30;101040.09;4959476;28;45269;-44
2023/09/02 04:11:53;;;;;;;;;3.25;2.50;;;;;23.04;53.57;101047.19;4958197;28;46814;-43
2023/09/02 04:14:19;;;;;;;;;2.25;2.25;;;;;23.04;53.63;101042.72;4958227;28;45351;-43
2023/09/02 04:16:44;;;;;;;;;6.00;4.00;;;;;23.03;53.65;101038.41;4959304;28;45317;-44
2023/09/02 04:19:09;;;;;;;;;2.00;2.00;;;;;23.03;53.24;101038.41;4958654;28;56812;-45
2023/09/02 04:21:35;;;;;;;;;4.25;2.75;;;;;23.03;53.77;101042.84;4958453;28;45355;-45
2023/09/02 04:24:00;;;;;;;;;3.50;3.50;;;;;23.02;53.67;101041.97;4958869;28;45359;-45
2023/09/02 04:26:26;;;;;;;;;5.25;4.00;;;;;23.01;53.55;101042.91;4959325;28;45306;-44
2023/09/02 04:28:52;;;;;;;;;4.00;3.00;;;;;23.00;53.81;101035.94;4959338;28;45592;-45
2023/09/02 04:31:18;;;;;;;;;4.00;4.00;;;;;23.00;53.71;101057.09;4958929;28;46085;-45
2023/09/02 04:33:43;;;;;;;;;3.00;3.00;;;;;22.99;53.80;101047.44;4958782;28;45349;-44
2023/09/02 04:36:08;;;;;;;;;3.00;3.00;;;;;22.98;53.28;101048.41;4958928;28;45371;-45
2023/09/02 04:38:34;;;;;;;;;3.00;3.00;;;;;22.99;53.41;101055.38;4959151;28;45334;-45
2023/09/02 04:41:06;;;;;;;;;4.00;3.00;;;;;22.98;53.87;101062.47;4958652;28;46767;-44
2023/09/02 04:43:32;;;;;;;;;3.00;3.00;;;;;22.98;53.57;101064.28;4958930;28;45735;-42
2023/09/02 04:46:02;;;;;;;;;4.50;3.75;;;;;22.99;53.71;101074.75;4958784;28;45275;-42
2023/09/02 04:48:28;;;;;;;;;2.50;2.50;;;;;22.98;53.81;101064.28;4959130;28;45507;-42
2023/09/02 04:50:54;;;;;;;;;3.00;3.00;;;;;22.99;53.53;101065.94;4941488;28;47630;-43
2023/09/02 04:53:20;;;;;;;;;3.25;3.00;;;;;22.98;53.84;101056.34;4958579;28;45446;-42
2023/09/02 04:55:47;;;;;;;;;3.75;2.50;;;;;22.99;53.98;101052.72;4958546;28;45426;-43
2023/09/02 04:58:12;;;;;;;;;3.25;3.00;;;;;22.98;53.68;101048.41;4958890;28;45577;-42
2023/09/02 05:00:38;;;;;;;;;3.75;3.50;;;;;22.98;53.52;101051.91;4958446;28;45452;-45
2023/09/02 05:03:04;;;;;;;;;3.25;3.25;;;;;22.98;53.52;101051.91;4941153;28;45377;-45
2023/09/02 05:05:31;;;;;;;;;4.25;3.00;;;;;22.98;53.64;101053.72;4958477;28;45232;-44
2023/09/02 05:07:57;;;;;;;;;2.25;2.25;;;;;22.97;53.84;101059.94;4958981;28;45586;-44
2023/09/02 05:10:22;;;;;;;;;4.50;3.00;;;;;22.98;53.66;101074.84;4958194;28;46112;-44
2023/09/02 05:12:47;;;;;;;;;2.00;2.00;;;;;22.98;53.53;101077.50;4958300;28;45362;-44
2023/09/02 05:15:13;;;;;;;;;3.75;3.00;;;;;22.97;53.36;101079.28;4956694;28;55135;-44
2023/09/02 05:17:38;;;;;;;;;2.25;2.25;;;;;22.98;53.48;101082.78;4958748;28;45908;-44
2023/09/02 05:20:05;;;;;;;;;2.00;2.00;;;;;22.98;53.56;101086.25;4958139;28;45536;-44
2023/09/02 05:22:31;;;;;;;;;3.50;2.50;;;;;22.98;53.52;101082.78;4958111;28;45737;-44
2023/09/02 05:24:56;;;;;;;;;2.00;2.00;;;;;22.97;53.47;101081.91;4958163;28;45268;-46
2023/09/02 05:27:22;;;;;;;;;2.75;2.50;;;;;22.99;53.64;101081.81;4958364;28;45316;-44
2023/09/02 05:29:48;;;;;;;;;2.50;2.50;;;;;22.98;53.48;101094.19;4957857;28;45363;-45
2023/09/02 05:32:15;;;;;;;;;3.00;3.00;;;;;22.98;53.24;101096.00;4957995;28;45273;-47
2023/09/02 05:34:40;;;;;;;;;2.75;2.00;;;;;22.97;53.61;101095.13;4958245;28;45243;-43
2023/09/02 05:37:06;;;;;;;;;4.00;3.00;;;;;22.97;53.44;101094.31;4958236;28;45558;-46
2023/09/02 05:39:31;;;;;;;;;4.00;3.50;;;;;22.96;53.67;101092.59;4940362;28;46243;-46
2023/09/02 05:41:57;;;;;;;;;6.00;3.00;;;;;22.97;53.13;101104.88;4957022;28;45389;-45
2023/09/02 05:44:22;;;;;;;;;3.50;2.25;;;;;22.98;53.63;101102.13;4958037;28;45572;-46
2023/09/02 05:46:48;;;;;;;;;2.75;2.00;;;;;22.98;53.19;101112.69;4958117;28;45247;-45
2023/09/02 05:49:13;;;;;;;;;2.00;2.00;;;;;23.00;53.68;101123.16;4957696;28;45540;-45
2023/09/02 05:51:39;;;;;;;;;2.25;1.50;;;;;23.00;53.21;101125.81;4957653;28;45423;-46
2023/09/02 05:54:06;;;;;;;;;4.00;3.00;;;;;22.99;53.11;101121.47;4940360;28;45314;-43
2023/09/02 05:56:33;;;;;;;;;3.25;2.25;;;;;23.00;53.11;101126.69;4957935;28;45429;-44
2023/09/02 05:58:59;;;;;;;;;3.00;3.00;;;;;22.99;53.35;101129.38;4957709;28;45442;-44
2023/09/02 06:01:24;;;;;;;;;2.50;2.50;;;;;22.98;53.19;101127.72;4957554;28;45454;-44
2023/09/02 06:03:49;;;;;;;;;3.00;3.00;;;;;22.96;53.60;101129.59;4939650;28;59697;-43
2023/09/02 06:06:15;;;;;;;;;2.00;2.00;;;;;22.96;53.80;101119.03;4957021;28;58863;-44
2023/09/02 06:08:40;;;;;;;;;2.50;2.50;;;;;22.95;53.58;101118.16;4957353;28;46207;-44
2023/09/02 06:11:06;;;;;;;;;2.25;2.25;;;;;22.94;53.32;101116.47;4957645;28;45387;-45
2023/09/02 06:13:32;;;;;;;;;2.00;2.00;;;;;22.94;53.12;101124.38;4957808;28;45310;-42
2023/09/02 06:16:05;;;;;;;;;3.25;3.25;;;;;22.94;53.74;101132.31;4958016;28;45630;-42
2023/09/02 06:18:31;;;;;;;;;3.00;3.00;;;;;22.94;53.49;101128.84;4957602;28;46250;-45
2023/09/02 06:20:57;;;;;;;;;2.25;2.00;;;;;22.93;53.37;101125.31;4940021;28;45239;-45
2023/09/02 06:23:25;;;;;;;;;2.50;2.50;;;;;22.92;53.69;101133.38;4957241;28;45328;-44
2023/09/02 06:25:57;;;;;;;;;4.25;3.00;;;;;22.92;53.44;101136.88;4957484;28;45741;-45
2023/09/02 06:28:23;;;;;;;;;3.75;3.00;;;;;22.92;54.04;101138.66;4957397;28;46110;-43
2023/09/02 06:30:48;;;;;;;;;3.75;2.25;;;;;22.92;53.69;101138.66;4957169;28;45287;-44
2023/09/02 06:33:15;;;;;;;;;3.25;2.50;;;;;22.93;53.53;101140.34;4957041;28;49336;-43
2023/09/02 06:35:40;;;;;;;;;2.00;2.00;;;;;22.92;53.72;101143.94;4940041;28;45589;-43
2023/09/02 06:38:05;;;;;;;;;3.25;3.25;;;;;22.94;53.56;101152.63;4957610;28;53975;-42
2023/09/02 06:40:30;;;;;;;;;3.00;3.00;;;;;22.95;53.79;101154.34;4960015;28;69014;-44
2023/09/02 06:42:56;;;;;;;;;2.00;2.00;;;;;22.95;53.35;101159.63;4960616;28;45334;-43
2023/09/02 06:45:21;;;;;;;;;2.00;2.00;;;;;22.96;53.41;101145.47;4960408;28;45698;-43
2023/09/02 06:47:46;;;;;;;;;3.00;3.00;;;;;22.96;53.31;101146.28;4959748;28;64931;-43
2023/09/02 06:50:12;;;;;;;;;2.00;2.00;;;;;22.97;53.72;101140.06;4958509;28;58249;-43
2023/09/02 06:52:37;;;;;;;;;3.00;3.00;;;;;22.98;53.17;101140.94;4960435;28;45442;-43
2023/09/02 06:55:03;;;;;;;;;2.00;2.00;;;;;22.98;53.15;101141.78;4960484;28;52393;-43
2023/09/02 06:57:29;;;;;;;;;2.75;2.25;;;;;22.99;53.06;101134.69;4960354;28;45741;-43
2023/09/02 06:59:54;;;;;;;;;2.00;2.00;;;;;23.00;53.68;101144.31;4959055;28;45375;-43
2023/09/02 07:02:19;;;;;;;;;1.00;1.00;;;;;23.01;53.63;101146.00;4960060;28;50786;-42
2023/09/02 07:04:49;;;;;;;;;2.75;2.75;;;;;23.01;53.37;101146.00;4960472;28;45826;-43
2023/09/02 07:07:14;;;;;;;;;3.00;3.00;;;;;23.01;53.45;101153.94;4960264;28;47247;-43
2023/09/02 07:09:42;;;;;;;;;2.00;2.00;;;;;23.03;53.62;101160.00;4960041;28;45382;-43
2023/09/02 07:12:08;;;;;;;;;2.00;2.00;;;;;23.03;53.73;101175.84;4960287;28;45454;-42
2023/09/02 07:14:33;;;;;;;;;3.25;2.00;;;;;23.03;53.77;101178.50;4960649;28;45469;-42
2023/09/02 07:16:59;;;;;;;;;3.00;3.00;;;;;23.01;53.36;101175.97;4960012;28;46355;-42
2023/09/02 07:19:24;;;;;;;;;3.00;3.00;;;;;23.02;53.30;101182.09;4959931;28;45276;-43
2023/09/02 07:21:50;;;;;;;;;3.25;2.25;;;;;23.03;53.09;101181.13;4959950;28;45260;-44
2023/09/02 07:24:16;;;;;;;;;3.00;3.00;;;;;23.03;53.40;101181.13;4960322;28;45367;-45
2023/09/02 07:26:41;;;;;;;;;2.00;2.00;;;;;23.02;53.03;101163.56;4959916;28;46256;-43
2023/09/02 07:29:07;;;;;;;;;3.00;2.00;;;;;23.00;53.78;101171.63;4959950;28;45640;-42
2023/09/02 07:31:32;;;;;;;;;2.00;2.00;;;;;23.01;53.28;101175.09;4960224;28;45400;-43
2023/09/02 07:33:59;;;;;;;;;2.75;2.75;;;;;23.01;53.30;101169.81;4959924;28;45533;-44
2023/09/02 07:36:24;;;;;;;;;4.00;3.00;;;;;23.03;53.23;101182.94;4959663;28;46666;-43
2023/09/02 07:38:49;;;;;;;;;2.00;2.00;;;;;23.04;53.26;101189.94;4959647;28;45491;-43
2023/09/02 07:41:15;;;;;;;;;1.00;1.00;;;;;23.05;53.54;101197.78;4959880;28;45792;-44
2023/09/02 07:43:40;;;;;;;;;1.25;1.25;;;;;23.05;53.33;101210.13;4958587;28;45616;-42
2023/09/02 07:46:05;;;;;;;;;1.25;1.25;;;;;23.05;53.49;101218.03;4959080;28;66531;-43
2023/09/02 07:48:31;;;;;;;;;2.50;2.00;;;;;23.04;52.93;101230.44;4957789;28;45365;-43
2023/09/02 07:50:56;;;;;;;;;3.00;3.00;;;;;23.04;53.56;101243.66;4959433;28;45480;-42
2023/09/02 07:53:21;;;;;;;;;2.00;2.00;;;;;23.06;52.96;101254.13;4958406;28;45320;-42
2023/09/02 07:55:47;;;;;;;;;2.00;1.00;;;;;23.07;53.15;101251.41;4958628;28;67663;-42
2023/09/02 07:58:12;;;;;;;;;2.25;2.00;;;;;23.08;52.86;101250.47;4959434;28;45458;-44
2023/09/02 08:00:38;;;;;;;;;5.75;3.25;;;;;23.08;53.54;101234.59;4959371;28;54344;-44
2023/09/02 08:03:04;;;;;;;;;3.75;2.00;;;;;23.09;52.99;101225.72;4959945;28;45586;-43
2023/09/02 08:05:29;;;;;;;;;2.00;2.00;;;;;23.11;52.79;101230.91;4959035;28;46257;-42
2023/09/02 08:07:55;;;;;;;;;1.00;1.00;;;;;23.11;53.22;101250.25;4959216;28;46495;-43
2023/09/02 08:10:21;;;;;;;;;1.00;1.00;;;;;23.13;52.88;101266.88;4942044;28;45382;-44
2023/09/02 08:12:46;;;;;;;;;2.50;2.50;;;;;23.13;52.90;101261.59;4959539;28;45553;-42
2023/09/02 08:15:12;;;;;;;;;2.00;2.00;;;;;23.15;52.77;101250.94;4959073;28;46640;-43
2023/09/02 08:17:42;;;;;;;;;2.00;2.00;;;;;23.15;53.27;101240.38;4959463;28;45777;-43
2023/09/02 08:20:09;;;;;;;;;3.75;2.00;;;;;23.16;53.15;101244.69;4959595;28;45272;-45
2023/09/02 08:22:36;;;;;;;;;2.50;1.25;;;;;23.17;52.62;101239.34;4959495;28;45522;-45
2023/09/02 08:25:03;;;;;;;;;2.75;1.25;;;;;23.19;52.63;101238.41;4958943;28;46071;-44
2023/09/02 08:27:28;;;;;;;;;1.75;1.75;;;;;23.18;53.08;101245.47;4959051;28;45237;-45
2023/09/02 08:29:53;;;;;;;;;2.50;2.00;;;;;23.19;53.08;101247.19;4959116;28;45312;-44
2023/09/02 08:32:18;;;;;;;;;2.00;2.00;;;;;23.20;53.34;101238.31;4959184;28;45613;-43
2023/09/02 08:34:44;;;;;;;;;3.25;3.25;;;;;23.20;53.22;101227.75;4958650;28;52082;-43
